createdAt,value
2018-11-20T00:02:09.699Z,94.83
2018-11-20T00:05:06.165Z,94.87
2018-11-20T00:08:13.558Z,94.90
2018-11-20T00:11:05.747Z,94.91
2018-11-20T00:14:05.894Z,94.88
2018-11-20T00:16:45.154Z,94.86
2018-11-20T00:19:41.457Z,94.86
2018-11-20T00:22:26.020Z,94.88
2018-11-20T00:25:19.833Z,94.89
2018-11-20T00:28:18.651Z,94.85
2018-11-20T00:31:06.753Z,94.81
2018-11-20T04:36:59.371Z,94.80
2018-11-20T04:39:44.221Z,94.80
2018-11-20T04:44:48.210Z,94.77
2018-11-20T04:47:39.003Z,94.76
2018-11-20T04:50:24.762Z,94.77
2018-11-20T04:53:11.626Z,94.77
2018-11-20T04:56:01.683Z,94.76
2018-11-20T04:58:56.966Z,94.78
2018-11-20T05:01:32.594Z,94.75
2018-11-20T05:04:23.862Z,94.68
2018-11-20T05:07:11.201Z,94.67
2018-11-20T05:10:05.344Z,94.67
2018-11-20T05:13:15.907Z,94.65
2018-11-20T05:18:39.822Z,94.64
2018-11-20T05:25:33.402Z,94.69
2018-11-20T05:28:20.217Z,94.62
2018-11-20T05:31:01.266Z,94.65
2018-11-20T05:34:01.090Z,94.66
2018-11-20T05:36:58.223Z,94.62
2018-11-20T05:39:58.846Z,94.65
2018-11-20T05:42:49.867Z,94.66
2018-11-20T05:45:43.155Z,94.66
2018-11-20T05:48:30.004Z,94.61
2018-11-20T05:51:29.972Z,94.61
2018-11-20T05:54:42.107Z,94.56
2018-11-20T05:57:30.271Z,94.57
2018-11-20T06:00:39.426Z,94.58
2018-11-20T06:03:26.353Z,94.56
2018-11-20T06:06:17.653Z,94.52
2018-11-20T06:09:05.805Z,94.54
2018-11-20T06:11:53.404Z,94.51
2018-11-20T06:14:44.275Z,94.56
2018-11-20T06:17:35.454Z,94.59
2018-11-20T06:20:26.925Z,94.56
2018-11-20T06:23:13.954Z,94.52
2018-11-20T06:26:02.868Z,94.53
2018-11-20T06:28:47.152Z,94.55
2018-11-20T06:31:34.205Z,94.52
2018-11-20T06:34:34.885Z,94.50
2018-11-20T06:37:23.466Z,94.55
2018-11-20T06:40:21.786Z,94.51
2018-11-20T06:43:10.107Z,94.55
2018-11-20T06:45:56.506Z,94.56
2018-11-20T06:48:45.336Z,94.53
2018-11-20T06:51:36.368Z,94.54
2018-11-20T06:54:23.797Z,94.54
2018-11-20T06:57:27.367Z,94.52
2018-11-20T07:00:27.320Z,94.51
2018-11-20T07:03:14.177Z,94.52
2018-11-20T07:06:01.177Z,94.52
2018-11-20T07:08:55.561Z,94.55
2018-11-20T07:11:44.198Z,94.56
2018-11-20T07:14:34.357Z,94.52
2018-11-20T07:17:30.069Z,94.55
2018-11-20T07:20:26.408Z,94.55
2018-11-20T07:23:34.111Z,94.56
2018-11-20T07:26:13.850Z,94.53
2018-11-20T07:29:00.678Z,94.50
2018-11-20T07:32:07.209Z,94.55
2018-11-20T07:35:02.333Z,94.56
2018-11-20T07:37:49.701Z,94.57
2018-11-20T07:40:36.439Z,94.52
2018-11-20T07:43:23.539Z,94.55
2018-11-20T07:46:20.980Z,94.56
2018-11-20T07:49:09.152Z,94.61
2018-11-20T07:51:57.562Z,94.63
2018-11-20T07:54:51.972Z,94.64
2018-11-20T07:57:34.211Z,94.64
2018-11-20T08:00:16.132Z,94.69
2018-11-20T08:02:58.496Z,94.70
2018-11-20T08:05:54.092Z,94.71
2018-11-20T08:08:45.434Z,94.75
2018-11-20T08:11:32.132Z,94.76
2018-11-20T08:14:33.271Z,94.74
2018-11-20T08:17:15.332Z,94.71
2018-11-20T08:20:02.364Z,94.73
2018-11-20T08:23:05.814Z,94.72
2018-11-20T08:25:57.170Z,94.72
2018-11-20T08:28:44.277Z,94.72
2018-11-20T08:31:32.606Z,94.72
2018-11-20T08:34:35.773Z,94.75
2018-11-20T08:37:26.977Z,94.77
2018-11-20T08:40:26.338Z,94.79
2018-11-20T08:43:11.295Z,94.83
2018-11-20T08:45:58.034Z,94.84
2018-11-20T08:48:52.135Z,94.84
2018-11-20T08:51:46.475Z,94.84
2018-11-20T08:54:37.215Z,94.80
2018-11-20T08:57:25.834Z,94.80
2018-11-20T09:00:22.822Z,94.82
2018-11-20T09:03:09.490Z,94.81
2018-11-20T09:06:01.296Z,94.79
2018-11-20T09:09:04.456Z,94.74
2018-11-20T09:11:51.715Z,94.70
2018-11-20T09:14:38.213Z,94.67
2018-11-20T09:17:38.436Z,94.55
2018-11-20T09:20:39.379Z,94.47
2018-11-20T09:23:26.243Z,94.34
2018-11-20T09:26:13.296Z,94.22
2018-11-20T09:29:04.636Z,94.08
2018-11-20T09:32:05.696Z,93.77
2018-11-20T09:34:57.081Z,93.93
2018-11-20T09:37:44.185Z,93.93
2018-11-20T09:40:58.655Z,93.72
2018-11-20T09:43:56.517Z,93.40
2018-11-20T09:46:50.553Z,93.34
2018-11-20T09:49:50.695Z,93.47
2018-11-20T09:52:37.435Z,93.26
2018-11-20T09:55:26.504Z,93.18
2018-11-20T09:58:14.736Z,93.04
2018-11-20T10:01:04.184Z,92.91
2018-11-20T10:03:44.863Z,92.79
2018-11-20T10:06:39.077Z,92.57
2018-11-20T10:09:32.278Z,92.47
2018-11-20T10:12:38.860Z,92.55
2018-11-20T10:15:26.566Z,92.59
2018-11-20T10:18:27.162Z,92.58
2018-11-20T10:21:14.205Z,92.69
2018-11-20T10:24:04.697Z,92.69
2018-11-20T10:26:49.197Z,92.68
2018-11-20T10:29:46.045Z,92.59
2018-11-20T10:32:44.118Z,92.72
2018-11-20T10:35:35.599Z,92.85
2018-11-20T10:38:26.590Z,92.77
2018-11-20T10:41:05.099Z,92.67
2018-11-20T10:43:52.397Z,92.71
2018-11-20T10:46:40.290Z,92.62
2018-11-20T10:49:27.998Z,92.48
2018-11-20T10:52:09.119Z,92.27
2018-11-20T10:54:49.819Z,92.08
2018-11-20T10:57:56.178Z,92.07
2018-11-20T11:00:43.064Z,92.04
2018-11-20T11:03:29.960Z,92.02
2018-11-20T11:06:17.045Z,91.76
2018-11-20T11:09:05.240Z,91.21
2018-11-20T11:11:54.412Z,91.05
2018-11-20T11:14:41.566Z,90.99
2018-11-20T11:17:24.700Z,90.94
2018-11-20T11:20:11.565Z,90.95
2018-11-20T11:23:17.985Z,91.18
2018-11-20T11:26:04.982Z,91.31
2018-11-20T11:28:53.271Z,91.36
2018-11-20T11:31:41.662Z,91.75
2018-11-20T11:34:42.222Z,91.62
2018-11-20T11:37:30.783Z,91.77
2018-11-20T11:40:21.770Z,91.19
2018-11-20T11:43:13.144Z,91.00
2018-11-20T11:46:00.063Z,91.51
2018-11-20T11:48:48.665Z,91.64
2018-11-20T11:51:39.991Z,91.41
2018-11-20T11:54:19.982Z,91.31
2018-11-20T11:57:20.303Z,91.24
2018-11-20T12:00:06.742Z,90.98
2018-11-20T12:05:47.423Z,89.95
2018-11-20T12:08:28.341Z,89.92
2018-11-20T12:11:31.658Z,89.38
2018-11-20T12:14:18.542Z,89.28
2018-11-20T12:17:05.762Z,88.90
2018-11-20T12:19:59.830Z,88.09
2018-11-20T12:22:46.752Z,87.94
2018-11-20T12:25:29.244Z,87.18
2018-11-20T12:28:18.898Z,86.95
2018-11-20T12:31:15.980Z,87.12
2018-11-20T12:34:00.442Z,87.49
2018-11-20T12:36:44.531Z,87.63
2018-11-20T12:39:31.341Z,88.08
2018-11-20T12:42:15.985Z,88.01
2018-11-20T12:45:16.573Z,88.31
2018-11-20T12:48:03.883Z,88.78
2018-11-20T12:50:50.394Z,88.89
2018-11-20T12:53:40.671Z,88.51
2018-11-20T12:56:33.979Z,88.66
2018-11-20T12:59:39.371Z,88.77
2018-11-20T13:02:22.784Z,89.38
2018-11-20T13:05:04.922Z,89.79
2018-11-20T13:07:56.211Z,89.72
2018-11-20T13:10:56.504Z,89.48
2018-11-20T13:13:48.007Z,89.49
2018-11-20T13:16:39.683Z,89.51
2018-11-20T13:19:43.140Z,89.49
2018-11-20T13:22:33.537Z,89.52
2018-11-20T13:25:18.044Z,89.56
2018-11-20T13:28:21.263Z,89.47
2018-11-20T13:31:17.902Z,89.53
2018-11-20T13:34:09.224Z,89.26
2018-11-20T13:36:57.792Z,89.44
2018-11-20T13:39:52.091Z,89.48
2018-11-20T13:42:48.069Z,89.63
2018-11-20T13:45:34.854Z,89.84
2018-11-20T13:48:21.653Z,89.93
2018-11-20T13:50:59.663Z,89.97
2018-11-20T13:53:52.143Z,89.86
2018-11-20T13:56:50.305Z,89.73
2018-11-20T13:59:37.274Z,89.30
2018-11-20T14:02:25.632Z,88.51
2018-11-20T14:05:12.194Z,88.13
2018-11-20T14:07:59.301Z,88.28
2018-11-20T14:11:05.865Z,88.87
2018-11-20T14:13:59.974Z,89.46
2018-11-20T14:16:54.385Z,90.14
2018-11-20T14:19:48.909Z,90.35
2018-11-20T14:22:34.286Z,90.49
2018-11-20T14:25:32.506Z,90.15
2018-11-20T14:28:26.703Z,90.32
2018-11-20T14:31:18.034Z,90.34
2018-11-20T14:34:00.989Z,90.16
2018-11-20T14:36:48.175Z,90.22
2018-11-20T14:39:36.430Z,90.47
2018-11-20T14:42:24.267Z,90.71
2018-11-20T14:45:13.916Z,90.53
2018-11-20T14:48:03.336Z,90.56
2018-11-20T14:50:51.707Z,90.77
2018-11-20T14:53:49.187Z,91.12
2018-11-20T15:01:02.708Z,91.47
2018-11-20T15:03:50.914Z,91.59
2018-11-20T15:06:46.499Z,91.66
2018-11-20T15:09:36.422Z,91.75
2018-11-20T15:12:23.499Z,91.85
2018-11-20T15:15:10.681Z,91.98
2018-11-20T15:17:59.248Z,92.14
2018-11-20T15:20:49.916Z,92.23
2018-11-20T15:23:44.269Z,92.30
2018-11-20T15:26:23.432Z,92.30
2018-11-20T15:29:24.259Z,92.40
2018-11-20T15:32:21.718Z,92.47
2018-11-20T15:35:15.629Z,92.56
2018-11-20T15:38:03.970Z,92.63
2018-11-20T15:40:56.830Z,92.70
2018-11-20T15:43:51.010Z,92.79
2018-11-20T15:47:28.936Z,92.81
2018-11-20T15:51:27.643Z,92.81
2018-11-20T15:58:59.591Z,93.00
2018-11-20T16:02:11.795Z,93.09
2018-11-20T16:05:20.316Z,93.23
2018-11-20T16:23:06.192Z,93.60
2018-11-20T16:29:58.882Z,93.68
2018-11-20T16:33:08.075Z,93.75
2018-11-20T16:36:47.173Z,93.76
2018-11-20T16:39:46.812Z,93.78
2018-11-20T16:42:31.912Z,93.80
2018-11-20T16:45:29.272Z,93.83
2018-11-20T16:48:23.223Z,93.83
2018-11-20T16:51:10.153Z,93.83
2018-11-20T16:54:04.754Z,93.81
2018-11-20T16:57:01.194Z,93.86
2018-11-20T17:00:07.860Z,93.87
2018-11-20T17:02:54.714Z,93.98
2018-11-20T17:05:45.952Z,93.96
2018-11-20T17:08:49.760Z,93.98
2018-11-20T17:11:50.256Z,94.00
2018-11-20T17:14:42.521Z,94.03
2018-11-20T17:17:45.857Z,94.04
2018-11-20T17:20:36.394Z,94.08
2018-11-20T17:23:42.335Z,94.07
2018-11-20T17:26:30.055Z,94.09
2018-11-20T17:29:21.295Z,94.12
2018-11-20T17:32:07.827Z,94.18
2018-11-20T17:35:05.428Z,94.21
2018-11-20T17:38:03.551Z,94.19
2018-11-20T17:40:50.596Z,94.21
2018-11-20T17:43:37.797Z,94.23
2018-11-20T17:46:25.256Z,94.25
2018-11-20T17:49:20.742Z,94.25
2018-11-20T17:52:08.042Z,94.23
2018-11-20T17:54:56.808Z,94.26
2018-11-20T17:57:46.597Z,94.27
2018-11-20T18:00:41.687Z,94.30
2018-11-20T18:03:29.103Z,94.31
2018-11-20T18:06:21.076Z,94.27
2018-11-20T18:09:07.037Z,94.24
2018-11-20T18:11:58.484Z,94.25
2018-11-20T18:14:45.580Z,94.30
2018-11-20T18:52:42.159Z,94.47
2018-11-20T18:55:42.537Z,94.46
2018-11-20T18:58:37.539Z,94.46
2018-11-20T19:01:29.238Z,94.42
2018-11-20T19:04:35.797Z,94.41
2018-11-20T19:07:20.697Z,94.44
2018-11-20T19:10:07.660Z,94.46
2018-11-20T19:13:00.471Z,94.50
2018-11-20T19:16:03.719Z,94.55
2018-11-20T19:18:54.938Z,94.55
2018-11-20T19:21:46.579Z,94.53
2018-11-20T19:24:46.223Z,94.48
2018-11-20T19:27:53.837Z,94.42
2018-11-20T19:30:45.140Z,94.37
2018-11-20T19:33:43.665Z,94.17
2018-11-20T19:36:51.279Z,94.02
2018-11-20T19:39:59.642Z,94.05
2018-11-20T19:42:51.564Z,94.15
2018-11-20T19:45:48.922Z,94.32
2018-11-20T19:48:36.398Z,94.45
2018-11-20T19:51:25.360Z,94.59
2018-11-20T19:54:55.621Z,94.69
2018-11-20T19:57:43.738Z,94.68
2018-11-20T20:07:51.385Z,94.75
2018-11-20T20:10:41.278Z,94.78
2018-11-20T20:13:34.060Z,94.80
2018-11-20T20:16:28.419Z,94.76
2018-11-20T20:19:22.538Z,94.78
2018-11-20T20:25:25.982Z,94.80
2018-11-20T20:28:13.386Z,94.79
2018-11-20T20:31:00.739Z,94.74
2018-11-20T20:33:57.380Z,94.74
2018-11-20T20:36:42.581Z,94.75
2018-11-20T20:39:30.711Z,94.81
2018-11-20T20:42:12.786Z,94.76
2018-11-20T20:44:59.680Z,94.77
2018-11-20T20:47:51.002Z,94.79
2018-11-20T20:50:38.199Z,94.80
2018-11-20T20:53:36.258Z,94.76
2018-11-20T20:56:24.239Z,94.78
2018-11-20T20:59:12.960Z,94.82
2018-11-20T21:02:00.245Z,94.82
2018-11-20T21:04:51.785Z,94.85
2018-11-20T21:07:58.399Z,94.85
2018-11-20T21:10:43.370Z,94.84
2018-11-20T21:13:30.239Z,94.85
2018-11-20T21:16:18.619Z,94.84
2018-11-20T21:19:07.158Z,94.83
2018-11-20T21:21:48.951Z,94.79
2018-11-20T21:24:38.679Z,94.77
2018-11-20T21:27:35.659Z,94.69
2018-11-20T21:30:19.406Z,94.69
2018-11-20T21:33:16.002Z,94.78
2018-11-20T21:36:04.304Z,94.80
2018-11-20T21:38:52.759Z,94.87
2018-11-20T21:41:50.122Z,94.91
2018-11-20T21:44:37.220Z,94.93
2018-11-20T21:47:13.949Z,94.92
2018-11-20T21:50:05.272Z,94.90
2018-11-20T21:52:52.269Z,94.94
2018-11-20T21:55:31.660Z,94.97
2018-11-20T21:58:18.920Z,95.07
2018-11-20T22:01:24.645Z,95.11
2018-11-20T22:04:11.979Z,95.10
2018-11-20T22:06:58.921Z,95.04
2018-11-20T22:10:05.522Z,95.04
2018-11-20T22:13:05.749Z,95.08
2018-11-20T22:15:52.529Z,95.09
2018-11-20T22:18:39.310Z,95.18
2018-11-20T22:21:39.601Z,95.18
2018-11-20T22:24:33.880Z,95.20
2018-11-20T22:27:40.260Z,95.13
2018-11-20T22:30:21.049Z,95.11
2018-11-20T22:33:11.602Z,95.05
2018-11-20T22:36:03.181Z,95.04
2018-11-20T22:38:51.381Z,95.09
2018-11-20T22:41:45.462Z,95.06
2018-11-20T22:44:25.641Z,94.98
2018-11-20T22:47:22.964Z,94.94
2018-11-20T22:50:10.023Z,94.97
2018-11-20T22:53:16.181Z,95.01
2018-11-20T22:56:10.433Z,95.01
2018-11-20T22:59:01.767Z,95.05
2018-11-20T23:01:48.428Z,95.02
2018-11-20T23:04:36.506Z,95.04
2018-11-20T23:07:23.567Z,95.00
2018-11-20T23:09:52.952Z,95.02
2018-11-20T23:12:22.366Z,94.97
2018-11-20T23:14:51.886Z,94.94
2018-11-20T23:17:21.654Z,94.93
2018-11-20T23:19:51.185Z,95.00
2018-11-20T23:22:20.755Z,95.04
2018-11-20T23:24:50.235Z,95.06
2018-11-20T23:27:19.728Z,95.06
2018-11-20T23:29:51.108Z,95.02
2018-11-20T23:32:20.940Z,95.10
2018-11-20T23:34:50.388Z,95.13
2018-11-20T23:37:20.267Z,95.17
2018-11-20T23:39:49.787Z,95.20
2018-11-20T23:42:23.861Z,95.20
2018-11-20T23:44:48.969Z,95.20
2018-11-20T23:47:18.558Z,95.17
2018-11-20T23:49:48.047Z,95.21
2018-11-20T23:52:17.580Z,95.18
2018-11-20T23:54:47.028Z,95.24
2018-11-20T23:57:16.576Z,95.22
2018-11-20T23:59:45.930Z,95.22
